Time;durP1;ratioP1;P1;durP2;ratioP2;P2;SDS_P1;SDS_P2;PMS_P1;PMS_P2;Temp;Humidity;BMP_temperature;BMP_pressure;BME280_temperature;BME280_humidity;BME280_pressure;Samples;Min_cycle;Max_cycle;Signal;HPM_P1;HPM_P2
2022/06/30 00:00:52;;;;;;;7.15;2.70;;;16.20;82.40;;;;;;5073654;28;20188;-84
2022/06/30 00:03:17;;;;;;;6.45;2.90;;;16.30;82.60;;;;;;5073890;28;20178;-83
2022/06/30 00:05:43;;;;;;;4.30;3.00;;;16.40;82.20;;;;;;5073819;28;20288;-85
2022/06/30 00:08:09;;;;;;;3.55;2.90;;;16.50;81.90;;;;;;5073860;28;20191;-85
2022/06/30 00:10:34;;;;;;;8.15;2.85;;;16.50;81.80;;;;;;5073451;28;20226;-85
2022/06/30 00:13:00;;;;;;;4.78;2.47;;;16.50;81.50;;;;;;5077237;28;20167;-86
2022/06/30 00:15:26;;;;;;;5.55;3.05;;;16.50;81.20;;;;;;5080201;28;20189;-85
2022/06/30 00:17:51;;;;;;;6.00;2.47;;;16.50;81.00;;;;;;5080287;28;20633;-85
2022/06/30 00:20:20;;;;;;;6.45;2.53;;;16.60;80.90;;;;;;5079978;28;20243;-85
2022/06/30 00:22:46;;;;;;;6.28;2.80;;;16.60;80.70;;;;;;5079995;28;20645;-85
2022/06/30 00:25:13;;;;;;;3.28;2.83;;;16.60;80.60;;;;;;5078568;28;20316;-85
2022/06/30 00:27:39;;;;;;;6.22;3.10;;;16.60;80.50;;;;;;5079811;28;20170;-85
2022/06/30 00:30:05;;;;;;;8.00;2.75;;;16.60;80.40;;;;;;5079674;28;20172;-85
2022/06/30 00:32:31;;;;;;;7.30;3.53;;;16.60;80.40;;;;;;5080024;28;20164;-85
2022/06/30 00:34:56;;;;;;;3.38;2.75;;;16.50;80.50;;;;;;5080103;28;20499;-86
2022/06/30 00:37:22;;;;;;;5.13;2.65;;;16.50;80.50;;;;;;5079980;28;20175;-85
2022/06/30 00:39:48;;;;;;;6.47;3.17;;;16.40;80.60;;;;;;5078546;28;20653;-85
2022/06/30 00:42:13;;;;;;;3.63;2.28;;;16.50;80.60;;;;;;5078327;28;20575;-85
2022/06/30 00:44:39;;;;;;;4.50;2.60;;;16.50;80.50;;;;;;5079727;28;20634;-85
2022/06/30 00:47:05;;;;;;;2.60;2.40;;;16.50;80.30;;;;;;5078351;28;20178;-85
2022/06/30 00:49:31;;;;;;;3.13;2.50;;;16.50;80.00;;;;;;5079634;28;20194;-85
2022/06/30 00:51:58;;;;;;;5.88;2.40;;;16.50;79.70;;;;;;5079523;28;20192;-85
2022/06/30 00:54:24;;;;;;;2.90;2.20;;;16.40;79.60;;;;;;5078475;28;20190;-85
2022/06/30 00:56:52;;;;;;;3.85;2.50;;;16.40;79.50;;;;;;5079612;28;20190;-85
2022/06/30 00:59:20;;;;;;;2.60;2.40;;;16.40;79.40;;;;;;5079456;28;20175;-85
2022/06/30 01:01:48;;;;;;;6.43;3.00;;;16.40;79.20;;;;;;5078041;28;20199;-85
2022/06/30 01:04:14;;;;;;;11.07;2.90;;;16.40;79.80;;;;;;5079363;28;20179;-85
2022/06/30 01:06:44;;;;;;;5.57;3.17;;;16.30;80.80;;;;;;5078050;28;20552;-84
2022/06/30 01:09:10;;;;;;;7.88;3.15;;;16.00;81.70;;;;;;5079267;28;20230;-85
2022/06/30 01:14:19;;;;;;;4.43;2.90;;;15.80;82.90;;;;;;5079915;28;20159;-86
2022/06/30 01:16:45;;;;;;;4.50;2.53;;;15.80;83.00;;;;;;5079355;28;20649;-85
2022/06/30 01:19:13;;;;;;;3.15;2.45;;;15.80;82.90;;;;;;5078117;28;20207;-85
2022/06/30 01:21:39;;;;;;;4.18;2.55;;;15.80;82.70;;;;;;5079164;28;20195;-85
2022/06/30 01:24:05;;;;;;;9.32;2.90;;;15.90;82.50;;;;;;5077100;28;20634;-85
2022/06/30 01:26:31;;;;;;;5.38;3.00;;;15.90;82.40;;;;;;5074750;28;20618;-85
2022/06/30 01:28:56;;;;;;;8.57;3.40;;;15.90;81.90;;;;;;5074524;28;20203;-84
2022/06/30 01:31:23;;;;;;;6.20;2.90;;;15.90;82.30;;;;;;5075895;28;20669;-85
2022/06/30 01:33:49;;;;;;;5.90;3.45;;;15.80;82.60;;;;;;5075896;28;20172;-85
2022/06/30 01:36:14;;;;;;;8.07;3.38;;;15.70;82.90;;;;;;5075921;28;20171;-85
2022/06/30 01:38:40;;;;;;;6.32;3.38;;;15.60;83.30;;;;;;5076273;28;20167;-85
2022/06/30 01:41:06;;;;;;;5.63;3.45;;;15.50;83.70;;;;;;5075703;28;20202;-85
2022/06/30 01:43:31;;;;;;;9.43;3.90;;;15.40;83.90;;;;;;5076052;28;20171;-85
2022/06/30 01:45:57;;;;;;;4.32;3.00;;;15.30;84.30;;;;;;5075732;28;20168;-85
2022/06/30 01:48:22;;;;;;;5.38;3.20;;;15.30;84.60;;;;;;5076024;28;20294;-85
2022/06/30 01:50:48;;;;;;;4.93;3.53;;;15.30;84.80;;;;;;5075576;28;20183;-85
2022/06/30 01:53:13;;;;;;;3.78;3.25;;;15.30;84.90;;;;;;5074523;28;20225;-85
2022/06/30 01:55:39;;;;;;;4.90;3.33;;;15.30;85.00;;;;;;5075660;28;20512;-85
2022/06/30 01:58:05;;;;;;;6.60;3.78;;;15.40;85.00;;;;;;5075879;28;20187;-85
2022/06/30 02:00:32;;;;;;;4.10;3.60;;;15.50;84.80;;;;;;5075718;28;20195;-85
2022/06/30 02:02:57;;;;;;;6.85;3.88;;;15.40;84.70;;;;;;5075448;28;20168;-85
2022/06/30 02:05:24;;;;;;;3.83;2.97;;;15.50;84.60;;;;;;5074189;28;20175;-85
2022/06/30 02:07:51;;;;;;;6.45;3.30;;;15.50;84.60;;;;;;5075715;28;20199;-85
2022/06/30 02:10:19;;;;;;;6.20;3.20;;;15.50;84.40;;;;;;5075150;28;20222;-85
2022/06/30 02:12:45;;;;;;;3.95;3.00;;;15.60;84.30;;;;;;5074740;28;20534;-86
2022/06/30 02:15:15;;;;;;;8.25;3.53;;;15.60;84.10;;;;;;5077175;28;20168;-87
2022/06/30 02:17:41;;;;;;;6.45;3.65;;;15.60;83.90;;;;;;5077132;28;20163;-85
2022/06/30 02:20:08;;;;;;;9.13;3.10;;;15.50;83.90;;;;;;5076582;28;20176;-86
2022/06/30 02:22:38;;;;;;;4.75;3.60;;;15.30;84.20;;;;;;5076720;28;20171;-85
2022/06/30 02:25:05;;;;;;;11.25;3.70;;;15.20;84.60;;;;;;5076349;28;20171;-86
2022/06/30 02:27:31;;;;;;;5.20;3.72;;;15.20;84.90;;;;;;5076196;28;20172;-85
2022/06/30 02:29:56;;;;;;;6.45;4.03;;;15.10;85.40;;;;;;5076169;28;20667;-85
2022/06/30 02:32:22;;;;;;;7.70;4.13;;;14.90;85.90;;;;;;5076144;28;20250;-86
2022/06/30 02:34:48;;;;;;;5.22;4.10;;;14.80;86.20;;;;;;5075802;28;20202;-85
2022/06/30 02:37:14;;;;;;;10.13;3.90;;;14.80;86.50;;;;;;5077147;28;20171;-85
2022/06/30 02:39:40;;;;;;;7.97;4.20;;;14.60;86.80;;;;;;5076546;28;20179;-85
2022/06/30 02:42:06;;;;;;;9.37;3.87;;;14.50;87.10;;;;;;5076566;28;20202;-86
2022/06/30 02:44:31;;;;;;;9.80;3.80;;;14.40;87.20;;;;;;5076536;28;20179;-85
2022/06/30 02:46:57;;;;;;;7.17;4.10;;;14.40;87.50;;;;;;5076060;28;20179;-86
2022/06/30 02:49:22;;;;;;;4.33;4.03;;;14.30;87.50;;;;;;5076042;28;20735;-86
2022/06/30 02:51:49;;;;;;;9.30;4.10;;;14.30;87.70;;;;;;5075820;28;20228;-86
2022/06/30 02:54:15;;;;;;;8.90;4.17;;;14.30;87.90;;;;;;5075465;28;20217;-86
2022/06/30 02:56:41;;;;;;;8.40;4.43;;;14.20;88.00;;;;;;5075830;28;20687;-86
2022/06/30 02:59:08;;;;;;;6.27;4.37;;;14.20;88.30;;;;;;5074106;28;20187;-86
2022/06/30 03:01:34;;;;;;;7.53;4.93;;;14.20;88.60;;;;;;5075277;28;20287;-85
2022/06/30 03:04:02;;;;;;;9.20;4.80;;;14.20;88.70;;;;;;5075300;28;20176;-87
2022/06/30 03:06:32;;;;;;;6.50;4.80;;;14.20;88.90;;;;;;5075322;28;20172;-86
2022/06/30 03:08:58;;;;;;;10.20;4.67;;;14.30;88.90;;;;;;5075307;28;20202;-86
2022/06/30 03:11:25;;;;;;;10.80;5.00;;;14.30;88.90;;;;;;5074833;28;20546;-85
2022/06/30 03:13:51;;;;;;;5.40;4.70;;;14.40;88.80;;;;;;5074961;28;20660;-86
2022/06/30 03:16:17;;;;;;;6.97;4.70;;;14.30;88.80;;;;;;5074983;28;20175;-86
2022/06/30 03:18:44;;;;;;;11.43;5.03;;;14.30;88.70;;;;;;5074474;28;20254;-86
2022/06/30 03:21:10;;;;;;;9.93;5.50;;;14.30;88.70;;;;;;5074625;28;20199;-86
2022/06/30 03:23:36;;;;;;;13.70;5.00;;;14.30;88.80;;;;;;5074706;28;20168;-86
2022/06/30 03:26:03;;;;;;;5.23;4.77;;;14.20;89.00;;;;;;5074823;28;20179;-87
2022/06/30 03:28:29;;;;;;;13.00;5.00;;;14.20;89.20;;;;;;5074225;28;20199;-86
2022/06/30 03:30:55;;;;;;;10.53;5.10;;;14.20;89.40;;;;;;5074591;28;20195;-86
2022/06/30 03:33:21;;;;;;;5.80;4.93;;;14.20;89.60;;;;;;5074862;28;20168;-87
2022/06/30 03:35:47;;;;;;;8.10;5.70;;;14.20;89.70;;;;;;5075306;28;20225;-86
2022/06/30 03:38:13;;;;;;;11.70;5.87;;;14.30;89.70;;;;;;5074898;28;20694;-87
2022/06/30 03:40:40;;;;;;;10.97;5.90;;;14.30;89.70;;;;;;5074048;28;20199;-86
2022/06/30 03:43:06;;;;;;;8.97;5.10;;;14.40;89.80;;;;;;5074668;28;20641;-86
2022/06/30 03:45:32;;;;;;;10.00;5.13;;;14.50;89.80;;;;;;5074339;28;20175;-86
2022/06/30 03:48:03;;;;;;;10.07;5.80;;;14.60;89.80;;;;;;5073720;28;20279;-86
2022/06/30 03:50:30;;;;;;;14.37;7.13;;;14.70;89.80;;;;;;5074038;28;20187;-87
2022/06/30 03:52:56;;;;;;;9.80;5.77;;;14.80;89.70;;;;;;5074398;28;20175;-86
2022/06/30 03:55:22;;;;;;;13.47;5.80;;;14.80;89.70;;;;;;5073700;28;20179;-85
2022/06/30 03:57:47;;;;;;;7.40;4.90;;;14.90;89.70;;;;;;5073228;28;20187;-85
2022/06/30 04:00:14;;;;;;;10.53;5.67;;;15.00;89.70;;;;;;5073150;28;20233;-86
2022/06/30 04:02:39;;;;;;;8.53;5.23;;;15.00;89.60;;;;;;5073729;28;20171;-86
2022/06/30 04:05:05;;;;;;;6.87;4.97;;;15.00;89.50;;;;;;5071837;28;20545;-85
2022/06/30 04:07:31;;;;;;;6.83;5.50;;;15.10;89.50;;;;;;5073174;28;20262;-86
2022/06/30 04:09:56;;;;;;;9.80;5.40;;;15.10;89.50;;;;;;5072625;28;20262;-85
2022/06/30 04:12:22;;;;;;;5.73;4.97;;;15.20;89.50;;;;;;5072984;28;20187;-85
2022/06/30 04:14:48;;;;;;;5.63;4.30;;;15.40;89.60;;;;;;5073052;28;20168;-85
2022/06/30 04:17:13;;;;;;;12.20;4.88;;;15.70;89.10;;;;;;5073239;28;20229;-86
2022/06/30 04:19:39;;;;;;;16.25;5.18;;;15.70;88.50;;;;;;5073366;28;20627;-86
2022/06/30 04:22:05;;;;;;;9.15;4.40;;;15.70;88.40;;;;;;5073059;28;20203;-86
2022/06/30 04:24:31;;;;;;;14.45;4.97;;;15.70;88.50;;;;;;5073157;28;20195;-85
2022/06/30 04:26:57;;;;;;;9.15;5.25;;;15.70;88.50;;;;;;5073184;28;20214;-86
2022/06/30 04:29:22;;;;;;;9.27;4.45;;;15.80;88.50;;;;;;5073116;28;20199;-86
2022/06/30 04:34:32;;;;;;;4.65;4.20;;;16.00;88.30;;;;;;5073136;28;20213;-85
2022/06/30 04:36:57;;;;;;;6.82;4.65;;;16.00;88.20;;;;;;5072820;28;20171;-85
2022/06/30 04:39:23;;;;;;;8.20;5.00;;;16.00;88.30;;;;;;5071662;28;20667;-85
2022/06/30 04:41:49;;;;;;;9.95;5.50;;;16.00;88.30;;;;;;5072707;28;20223;-85
2022/06/30 04:44:14;;;;;;;9.07;4.60;;;16.00;88.40;;;;;;5073032;28;20172;-86
2022/06/30 04:46:40;;;;;;;8.07;5.13;;;16.00;88.60;;;;;;5072739;28;20697;-86
2022/06/30 04:49:06;;;;;;;7.93;5.38;;;16.00;88.80;;;;;;5071518;28;20207;-86
2022/06/30 04:51:31;;;;;;;10.27;5.35;;;16.00;89.10;;;;;;5072816;28;20562;-85
2022/06/30 04:53:57;;;;;;;9.95;5.60;;;16.10;89.30;;;;;;5073009;28;20187;-85
2022/06/30 04:56:23;;;;;;;10.15;5.60;;;16.20;89.40;;;;;;5072530;28;20183;-86
2022/06/30 04:58:48;;;;;;;7.13;5.40;;;16.40;89.50;;;;;;5072699;28;20170;-86
2022/06/30 05:01:14;;;;;;;9.27;5.63;;;16.40;89.40;;;;;;5076732;28;20265;-86
2022/06/30 05:03:40;;;;;;;7.95;5.22;;;16.40;89.00;;;;;;5076513;28;20175;-85
2022/06/30 05:06:06;;;;;;;8.77;5.20;;;16.60;89.20;;;;;;5076481;28;20542;-86
2022/06/30 05:08:32;;;;;;;10.50;5.28;;;16.60;88.80;;;;;;5076271;28;20249;-85
2022/06/30 05:10:58;;;;;;;10.50;5.63;;;16.60;88.70;;;;;;5076442;28;20187;-86
2022/06/30 05:13:24;;;;;;;10.50;5.20;;;16.60;88.90;;;;;;5076469;28;20225;-86
2022/06/30 05:15:50;;;;;;;13.85;5.57;;;16.70;88.80;;;;;;5076514;28;20171;-85
2022/06/30 05:18:16;;;;;;;7.50;5.20;;;16.80;88.80;;;;;;5076102;28;20178;-85
2022/06/30 05:20:42;;;;;;;10.05;5.28;;;17.00;88.80;;;;;;5076010;28;20187;-86
2022/06/30 05:23:09;;;;;;;8.45;4.80;;;17.10;88.60;;;;;;5075991;28;20649;-85
2022/06/30 05:28:21;;;;;;;4.63;3.95;;;17.50;87.60;;;;;;5076327;28;20248;-86
2022/06/30 05:30:48;;;;;;;9.05;4.80;;;17.50;86.80;;;;;;5075072;28;20201;-86
2022/06/30 05:33:14;;;;;;;5.05;4.28;;;17.70;86.00;;;;;;5076032;28;20179;-85
2022/06/30 05:35:40;;;;;;;5.50;3.88;;;17.80;85.90;;;;;;5075824;28;20167;-86
2022/06/30 05:38:06;;;;;;;7.00;4.20;;;17.80;85.10;;;;;;5076328;28;20176;-86
2022/06/30 05:40:32;;;;;;;8.80;4.00;;;18.00;85.00;;;;;;5075729;28;20545;-85
2022/06/30 05:42:57;;;;;;;6.78;3.90;;;18.10;84.40;;;;;;5074839;28;20176;-86
2022/06/30 05:45:23;;;;;;;7.90;4.00;;;18.30;84.70;;;;;;5077089;28;20183;-86
2022/06/30 05:47:51;;;;;;;11.60;5.35;;;18.40;83.60;;;;;;5075899;28;20175;-86
2022/06/30 05:50:17;;;;;;;9.15;3.92;;;18.50;83.20;;;;;;5075585;28;20190;-86
2022/06/30 05:52:43;;;;;;;5.15;3.70;;;18.60;82.60;;;;;;5076082;28;20275;-88
2022/06/30 05:55:09;;;;;;;6.57;3.80;;;18.70;82.10;;;;;;5074451;28;20195;-86
2022/06/30 05:57:51;;;;;;;4.85;3.33;;;18.70;81.80;;;;;;5074188;28;20191;-86
2022/06/30 06:00:22;;;;;;;6.82;3.92;;;18.90;81.80;;;;;;5075789;28;20247;-86
2022/06/30 06:02:48;;;;;;;8.40;3.63;;;19.00;81.30;;;;;;5075608;28;20580;-86
2022/06/30 06:05:14;;;;;;;7.15;3.83;;;19.00;80.40;;;;;;5075335;28;20202;-85
2022/06/30 06:07:40;;;;;;;8.63;4.18;;;19.10;80.40;;;;;;5074077;28;20188;-86
2022/06/30 06:10:06;;;;;;;9.70;4.07;;;19.00;80.00;;;;;;5074674;28;20171;-86
2022/06/30 06:12:31;;;;;;;6.10;4.03;;;19.20;80.60;;;;;;5073979;28;20179;-86
2022/06/30 06:14:57;;;;;;;5.93;3.63;;;19.20;79.70;;;;;;5074003;28;20293;-86
2022/06/30 06:17:23;;;;;;;5.97;3.78;;;19.40;79.60;;;;;;5075222;28;20242;-86
2022/06/30 06:19:49;;;;;;;10.32;4.07;;;19.50;79.10;;;;;;5075341;28;20244;-86
2022/06/30 06:22:14;;;;;;;6.93;3.85;;;19.60;79.30;;;;;;5073827;28;20206;-86
2022/06/30 06:24:40;;;;;;;9.52;3.60;;;19.70;79.00;;;;;;5075087;28;20171;-86
2022/06/30 06:27:05;;;;;;;6.50;3.95;;;19.80;78.30;;;;;;5074885;28;20172;-86
2022/06/30 06:29:31;;;;;;;5.57;3.80;;;20.00;79.20;;;;;;5075858;28;20199;-87
2022/06/30 06:31:57;;;;;;;7.97;4.60;;;20.00;78.00;;;;;;5076186;28;20237;-87
2022/06/30 06:34:22;;;;;;;4.78;3.40;;;20.00;77.70;;;;;;5075918;28;20540;-87
2022/06/30 06:36:48;;;;;;;6.38;3.80;;;20.20;78.10;;;;;;5075940;28;20222;-86
2022/06/30 06:39:13;;;;;;;4.90;3.65;;;20.20;77.60;;;;;;5077560;28;20176;-87
2022/06/30 06:41:39;;;;;;;6.43;3.50;;;20.20;76.90;;;;;;5075810;28;20613;-86
2022/06/30 06:44:05;;;;;;;8.00;3.80;;;20.40;77.30;;;;;;5076055;28;20182;-87
2022/06/30 06:46:31;;;;;;;11.57;3.33;;;20.40;76.80;;;;;;5075751;28;20175;-86
2022/06/30 06:49:03;;;;;;;7.05;3.28;;;20.70;77.70;;;;;;5075350;28;20543;-87
2022/06/30 06:51:28;;;;;;;8.55;3.33;;;20.70;75.60;;;;;;5076129;28;20198;-88
2022/06/30 06:53:55;;;;;;;9.50;4.20;;;20.70;75.50;;;;;;5075375;28;20175;-86
2022/06/30 06:56:21;;;;;;;7.30;3.35;;;20.70;75.10;;;;;;5075246;28;20262;-86
2022/06/30 06:58:48;;;;;;;9.18;3.35;;;20.90;76.30;;;;;;5075554;28;20239;-86
2022/06/30 07:01:13;;;;;;;6.57;4.07;;;21.10;75.70;;;;;;5075434;28;20716;-87
2022/06/30 07:03:39;;;;;;;11.55;4.10;;;21.00;74.40;;;;;;5075143;28;20168;-87
2022/06/30 07:06:06;;;;;;;6.03;3.20;;;21.20;75.50;;;;;;5075696;28;20199;-86
2022/06/30 07:08:32;;;;;;;6.75;3.20;;;21.30;74.30;;;;;;5075643;28;20709;-87
2022/06/30 07:10:57;;;;;;;4.63;3.00;;;21.50;74.70;;;;;;5074931;28;20227;-87
2022/06/30 07:13:24;;;;;;;5.53;3.70;;;21.50;74.00;;;;;;5075327;28;20167;-87
2022/06/30 07:15:50;;;;;;;8.30;3.30;;;21.60;73.50;;;;;;5075590;28;20260;-87
2022/06/30 07:18:16;;;;;;;6.57;3.47;;;21.70;72.40;;;;;;5075196;28;20597;-86
2022/06/30 07:20:41;;;;;;;5.25;3.40;;;21.80;71.50;;;;;;5075378;28;20183;-86
2022/06/30 07:23:07;;;;;;;4.85;3.10;;;21.80;71.70;;;;;;5074539;28;20695;-86
2022/06/30 07:25:33;;;;;;;6.82;3.03;;;21.90;71.50;;;;;;5074519;28;20172;-87
2022/06/30 07:27:58;;;;;;;6.85;3.30;;;21.90;71.00;;;;;;5075197;28;20199;-86
2022/06/30 07:30:25;;;;;;;6.05;3.13;;;21.90;70.00;;;;;;5074978;28;20611;-86
2022/06/30 07:32:51;;;;;;;7.95;3.40;;;22.00;70.70;;;;;;5074636;28;20167;-86
2022/06/30 07:35:17;;;;;;;6.65;3.10;;;22.10;71.60;;;;;;5074221;28;20163;-86
2022/06/30 07:37:42;;;;;;;6.90;3.28;;;22.20;71.20;;;;;;5072871;28;20736;-86
2022/06/30 07:40:09;;;;;;;7.45;2.97;;;22.20;71.20;;;;;;5074151;28;20668;-86
2022/06/30 07:42:35;;;;;;;7.10;3.47;;;22.20;70.50;;;;;;5074756;28;20175;-87
2022/06/30 07:45:02;;;;;;;5.75;2.90;;;22.50;70.70;;;;;;5075739;28;20167;-86
2022/06/30 07:47:28;;;;;;;4.00;2.80;;;22.40;70.00;;;;;;5075050;28;20177;-86
2022/06/30 07:49:54;;;;;;;6.70;3.22;;;22.40;68.80;;;;;;5074284;28;20572;-84
2022/06/30 07:52:19;;;;;;;6.38;3.47;;;22.50;70.70;;;;;;5074488;28;20207;-86
2022/06/30 07:54:45;;;;;;;5.78;3.33;;;22.70;70.60;;;;;;5075940;28;20163;-87
2022/06/30 07:57:12;;;;;;;6.13;3.10;;;22.40;69.20;;;;;;5078452;28;20187;-87
2022/06/30 07:59:38;;;;;;;6.93;3.20;;;22.50;70.30;;;;;;5077564;28;20239;-87
2022/06/30 08:02:04;;;;;;;6.45;3.10;;;22.60;69.40;;;;;;5081252;28;20199;-87
2022/06/30 08:04:30;;;;;;;8.23;3.22;;;22.60;68.60;;;;;;5081799;28;20182;-88
2022/06/30 08:06:55;;;;;;;5.65;3.20;;;22.70;68.90;;;;;;5078252;28;20225;-87
2022/06/30 08:09:21;;;;;;;5.90;3.25;;;22.80;69.00;;;;;;5076739;28;20203;-89
2022/06/30 08:11:46;;;;;;;7.50;3.08;;;22.80;68.30;;;;;;5078308;28;20184;-87
2022/06/30 08:14:12;;;;;;;6.13;3.35;;;23.00;69.50;;;;;;5077067;28;20534;-87
2022/06/30 08:16:38;;;;;;;6.03;3.40;;;22.90;68.00;;;;;;5077582;28;20171;-87
2022/06/30 08:19:03;;;;;;;9.82;3.28;;;23.10;68.60;;;;;;5076298;28;20214;-87
2022/06/30 08:21:29;;;;;;;5.10;3.45;;;23.20;68.90;;;;;;5075052;28;20677;-87
2022/06/30 08:23:55;;;;;;;6.05;3.03;;;23.20;66.70;;;;;;5075714;28;20172;-87
2022/06/30 08:26:22;;;;;;;10.10;3.17;;;23.20;68.80;;;;;;5074982;28;20171;-88
2022/06/30 08:28:49;;;;;;;4.72;2.72;;;23.30;67.70;;;;;;5075146;28;20236;-87
2022/06/30 08:31:16;;;;;;;5.82;3.33;;;23.30;66.40;;;;;;5076619;28;20764;-88
2022/06/30 08:33:41;;;;;;;8.80;3.53;;;23.50;68.50;;;;;;5075111;28;20175;-87
2022/06/30 08:36:08;;;;;;;6.25;3.25;;;23.70;67.10;;;;;;5077339;28;20167;-87
2022/06/30 08:38:34;;;;;;;6.57;3.35;;;23.70;67.50;;;;;;5077964;28;20605;-88
2022/06/30 08:43:45;;;;;;;8.18;3.58;;;23.90;66.50;;;;;;5087002;28;20179;-88
2022/06/30 08:46:16;;;;;;;8.35;3.17;;;23.90;65.30;;;;;;5081228;28;20531;-88
2022/06/30 08:48:42;;;;;;;5.55;3.50;;;24.10;65.10;;;;;;5079068;28;20197;-87
2022/06/30 08:51:07;;;;;;;7.15;3.25;;;24.20;65.10;;;;;;5077047;28;20197;-89
2022/06/30 08:53:40;;;;;;;10.48;3.30;;;24.40;65.30;;;;;;5077244;28;20202;-88
2022/06/30 08:56:05;;;;;;;5.50;3.63;;;24.40;63.90;;;;;;5077255;28;20648;-88
2022/06/30 08:58:32;;;;;;;7.38;3.42;;;24.40;63.20;;;;;;5077654;28;20160;-87
2022/06/30 09:00:58;;;;;;;6.15;3.08;;;24.30;63.90;;;;;;5076877;28;20192;-88
2022/06/30 09:03:24;;;;;;;7.75;3.20;;;24.40;64.30;;;;;;5078026;28;20180;-88
2022/06/30 09:05:49;;;;;;;7.28;3.35;;;24.60;63.80;;;;;;5075490;28;20179;-87
2022/06/30 09:08:17;;;;;;;7.15;3.53;;;24.50;62.40;;;;;;5076838;28;20278;-90
2022/06/30 09:10:51;;;;;;;5.53;2.72;;;24.50;63.00;;;;;;5077577;28;20191;-88
2022/06/30 09:13:17;;;;;;;5.47;3.28;;;24.70;64.20;;;;;;5076314;28;20199;-87
2022/06/30 09:15:43;;;;;;;6.63;3.38;;;24.80;62.50;;;;;;5076311;28;20171;-87
2022/06/30 09:18:21;;;;;;;5.00;3.15;;;24.80;63.30;;;;;;5076506;28;20186;-88
2022/06/30 09:20:47;;;;;;;7.65;3.30;;;24.80;61.10;;;;;;5076041;28;20191;-88
2022/06/30 09:23:19;;;;;;;6.53;3.20;;;24.80;61.10;;;;;;5076129;28;20175;-88
2022/06/30 09:25:50;;;;;;;10.52;3.45;;;24.80;61.70;;;;;;5076107;28;20182;-87
2022/06/30 09:28:36;;;;;;;3.70;2.80;;;24.70;60.40;;;;;;5076286;28;20183;-86
2022/06/30 09:31:02;;;;;;;7.35;2.92;;;24.60;61.50;;;;;;5075781;28;20187;-87
2022/06/30 09:33:34;;;;;;;5.70;3.15;;;25.00;61.10;;;;;;5075978;28;20246;-88
2022/06/30 09:36:22;;;;;;;3.78;2.47;;;25.00;59.40;;;;;;5076098;28;20614;-88
2022/06/30 09:39:03;;;;;;;4.75;2.95;;;25.10;60.80;;;;;;5076463;28;20160;-87
2022/06/30 09:41:30;;;;;;;4.28;3.08;;;25.00;58.60;;;;;;5074597;28;20197;-88
2022/06/30 09:43:56;;;;;;;4.65;2.58;;;25.00;59.80;;;;;;5075093;28;20183;-87
2022/06/30 09:46:22;;;;;;;4.72;2.70;;;25.40;57.00;;;;;;5074815;28;20650;-89
2022/06/30 09:48:48;;;;;;;6.07;2.42;;;25.50;57.10;;;;;;5075628;28;20573;-88
2022/06/30 09:51:14;;;;;;;5.15;2.83;;;25.70;58.00;;;;;;5075526;28;20193;-88
2022/06/30 09:53:39;;;;;;;4.05;2.42;;;25.70;55.20;;;;;;5075480;28;20178;-88
2022/06/30 09:56:13;;;;;;;6.70;2.65;;;25.80;55.50;;;;;;5075618;28;20164;-88
2022/06/30 09:58:43;;;;;;;5.18;2.30;;;26.10;55.50;;;;;;5075599;28;20171;-87
2022/06/30 10:01:10;;;;;;;12.38;2.90;;;26.20;57.20;;;;;;5075385;28;20194;-88
2022/06/30 10:03:47;;;;;;;4.25;2.67;;;26.30;57.20;;;;;;5075383;28;20179;-88
2022/06/30 10:06:15;;;;;;;2.58;2.38;;;26.20;56.10;;;;;;5075427;28;20198;-88
2022/06/30 10:08:41;;;;;;;4.18;2.70;;;26.10;56.00;;;;;;5075467;28;20724;-87
2022/06/30 10:11:08;;;;;;;7.97;2.53;;;26.00;56.30;;;;;;5075249;28;20202;-88
2022/06/30 10:13:42;;;;;;;8.18;2.58;;;26.10;57.00;;;;;;5075144;28;20543;-88
2022/06/30 10:16:08;;;;;;;5.75;3.00;;;26.20;55.00;;;;;;5075056;28;20594;-88
2022/06/30 10:18:38;;;;;;;6.05;2.90;;;26.40;53.60;;;;;;5075119;28;20175;-88
2022/06/30 10:21:04;;;;;;;6.18;2.90;;;26.70;52.80;;;;;;5074913;28;20205;-87
2022/06/30 10:23:31;;;;;;;5.07;2.70;;;26.40;52.80;;;;;;5075067;28;20537;-87
2022/06/30 10:25:57;;;;;;;3.17;2.30;;;26.50;53.90;;;;;;5073703;28;20710;-87
2022/06/30 10:28:24;;;;;;;3.80;2.58;;;26.40;53.60;;;;;;5074956;28;20203;-88
2022/06/30 10:31:08;;;;;;;3.65;2.58;;;26.40;54.00;;;;;;5074865;28;20184;-87
2022/06/30 10:33:48;;;;;;;5.65;2.78;;;26.30;55.20;;;;;;5073539;28;20198;-87
2022/06/30 10:36:25;;;;;;;3.72;2.30;;;26.20;53.90;;;;;;5074812;28;20159;-87
2022/06/30 10:39:06;;;;;;;7.43;2.40;;;26.40;52.90;;;;;;5074688;28;20209;-88
2022/06/30 10:41:42;;;;;;;5.25;2.80;;;26.60;54.10;;;;;;5074574;28;20288;-88
2022/06/30 10:44:08;;;;;;;5.57;2.30;;;26.80;51.20;;;;;;5074874;28;20634;-87
2022/06/30 10:46:36;;;;;;;5.82;2.38;;;27.00;51.60;;;;;;5074483;28;20171;-87
2022/06/30 10:49:09;;;;;;;7.45;2.78;;;27.00;50.80;;;;;;5074628;28;20195;-87
2022/06/30 10:51:35;;;;;;;5.00;2.38;;;27.10;51.10;;;;;;5074335;28;20270;-87
2022/06/30 10:54:00;;;;;;;4.70;2.58;;;27.20;49.80;;;;;;5073059;28;20199;-87
2022/06/30 10:56:48;;;;;;;4.47;2.65;;;27.00;51.60;;;;;;5074012;28;20183;-88
2022/06/30 10:59:13;;;;;;;5.38;2.45;;;26.80;50.60;;;;;;5074474;28;20171;-87
2022/06/30 11:02:00;;;;;;;5.55;2.53;;;27.10;51.80;;;;;;5074127;28;20214;-88
2022/06/30 11:04:25;;;;;;;8.30;2.67;;;27.30;52.90;;;;;;5072888;28;20198;-87
2022/06/30 11:07:01;;;;;;;4.28;2.60;;;27.50;52.00;;;;;;5074136;28;20645;-87
2022/06/30 11:09:44;;;;;;;4.32;2.80;;;27.50;49.20;;;;;;5074010;28;20285;-87
2022/06/30 11:12:23;;;;;;;4.07;2.38;;;27.30;49.70;;;;;;5073893;28;20190;-88
2022/06/30 11:14:54;;;;;;;5.90;2.65;;;27.50;49.30;;;;;;5074060;28;20204;-88
2022/06/30 11:17:22;;;;;;;3.60;2.25;;;27.60;50.30;;;;;;5073864;28;20254;-88
2022/06/30 11:19:48;;;;;;;8.57;2.53;;;27.70;48.50;;;;;;5074028;28;20198;-87
2022/06/30 11:22:15;;;;;;;3.63;2.20;;;27.70;48.20;;;;;;5072471;28;20237;-88
2022/06/30 11:24:45;;;;;;;5.28;2.42;;;28.10;48.90;;;;;;5073792;28;20179;-88
2022/06/30 11:27:28;;;;;;;5.43;2.10;;;28.20;47.60;;;;;;5072540;28;20183;-87
2022/06/30 11:30:20;;;;;;;6.78;2.25;;;28.10;48.00;;;;;;5073493;28;20236;-87
2022/06/30 11:32:45;;;;;;;7.47;2.15;;;28.10;47.00;;;;;;5072075;28;20268;-88
2022/06/30 11:35:11;;;;;;;3.50;2.20;;;28.10;49.70;;;;;;5073865;28;20218;-88
2022/06/30 11:37:36;;;;;;;6.40;2.40;;;28.00;46.80;;;;;;5073545;28;20171;-87
2022/06/30 11:40:05;;;;;;;3.85;2.30;;;27.80;48.30;;;;;;5073530;28;20175;-88
2022/06/30 11:42:32;;;;;;;4.13;2.40;;;28.10;48.60;;;;;;5073547;28;20181;-88
2022/06/30 11:44:58;;;;;;;3.70;2.47;;;28.00;45.50;;;;;;5072208;28;20182;-87
2022/06/30 11:47:23;;;;;;;4.18;2.10;;;28.30;47.20;;;;;;5072203;28;20214;-87
2022/06/30 11:49:53;;;;;;;3.60;2.38;;;28.80;45.70;;;;;;5073353;28;20222;-87
2022/06/30 11:52:21;;;;;;;3.63;2.15;;;28.90;45.60;;;;;;5073279;28;20198;-88
2022/06/30 11:54:54;;;;;;;7.22;2.20;;;28.80;46.10;;;;;;5073466;28;20194;-88
2022/06/30 11:57:22;;;;;;;9.43;2.25;;;28.70;44.50;;;;;;5073158;28;20179;-87
2022/06/30 11:59:50;;;;;;;5.25;2.10;;;28.50;45.50;;;;;;5073286;28;20664;-88
2022/06/30 12:02:16;;;;;;;4.07;2.42;;;28.70;46.30;;;;;;5073149;28;20191;-88
2022/06/30 12:04:43;;;;;;;7.75;2.47;;;28.80;44.10;;;;;;5073155;28;20266;-87
2022/06/30 12:07:14;;;;;;;8.27;2.30;;;28.80;45.60;;;;;;5073206;28;20194;-87
2022/06/30 12:09:41;;;;;;;5.28;2.00;;;28.50;44.80;;;;;;5072809;28;20191;-88
2022/06/30 12:12:08;;;;;;;4.20;2.13;;;28.70;46.00;;;;;;5073125;28;20751;-88
2022/06/30 12:14:39;;;;;;;4.82;2.28;;;28.80;46.40;;;;;;5073148;28;20167;-87
2022/06/30 12:17:10;;;;;;;2.78;2.20;;;29.60;45.90;;;;;;5073377;28;20158;-87
2022/06/30 12:19:36;;;;;;;5.18;2.30;;;29.20;46.60;;;;;;5073147;28;20179;-87
2022/06/30 12:22:04;;;;;;;4.20;2.10;;;28.90;45.30;;;;;;5072832;28;20207;-87
2022/06/30 12:24:30;;;;;;;3.38;2.25;;;29.20;46.10;;;;;;5073021;28;20518;-87
2022/06/30 12:26:57;;;;;;;3.20;2.20;;;29.00;44.20;;;;;;5072883;28;20220;-87
2022/06/30 12:29:26;;;;;;;3.28;1.92;;;28.80;46.30;;;;;;5072964;28;20232;-88
2022/06/30 12:32:20;;;;;;;6.70;2.45;;;28.80;49.50;;;;;;5072875;28;20217;-87
2022/06/30 12:35:00;;;;;;;3.85;2.30;;;28.60;46.10;;;;;;5073208;28;20518;-88
2022/06/30 12:37:31;;;;;;;6.22;2.30;;;28.80;46.10;;;;;;5072711;28;20175;-87
2022/06/30 12:39:59;;;;;;;5.38;2.63;;;28.90;45.30;;;;;;5072879;28;20190;-88
2022/06/30 12:42:26;;;;;;;8.45;2.90;;;29.10;47.60;;;;;;5072879;28;20202;-88
2022/06/30 12:44:52;;;;;;;4.95;2.30;;;29.00;45.40;;;;;;5072840;28;20679;-87
2022/06/30 12:47:18;;;;;;;5.10;2.60;;;29.00;48.70;;;;;;5072832;28;20175;-87
2022/06/30 12:49:44;;;;;;;7.78;2.65;;;28.80;46.10;;;;;;5072854;28;20291;-87
2022/06/30 12:52:17;;;;;;;4.15;2.70;;;28.60;46.40;;;;;;5072808;28;20262;-87
2022/06/30 12:54:55;;;;;;;4.57;2.50;;;28.40;46.00;;;;;;5072836;28;20160;-88
2022/06/30 12:57:21;;;;;;;5.55;2.63;;;28.70;47.60;;;;;;5071930;28;20194;-87